This is the latest recevied weather packets stored in our database for station/object NR5ON-13. If no packets are shown the sender has not sent any weather packets the latest 10 day(s).
| Time | Temp. | Humidity | Pressure | Rain* | Wind** | Luminosity | Snow |
|---|---|---|---|---|---|---|---|
| 1777442924 | 8.33° C | 20% | 1020.8 hPa | 0 mm | - | - | - |
| 1777442613 | 8.33° C | 20% | 1020.7 hPa | 0 mm | - | - | - |
| 1777442319 | 8.33° C | 20% | 1020.7 hPa | 0 mm | - | - | - |
| 1777442027 | 8.33° C | 21% | 1020.7 hPa | 0 mm | - | - | - |
| 1777441714 | 8.33° C | 19% | 1020.5 hPa | 0 mm | - | - | - |
| 1777441422 | 8.89° C | 20% | 1020.7 hPa | 0 mm | - | - | - |
| 1777441113 | 8.89° C | 20% | 1020.6 hPa | 0 mm | - | - | - |
| 1777440821 | 8.89° C | 19% | 1020.6 hPa | 0 mm | - | - | - |
| 1777440509 | 8.89° C | 19% | 1020.6 hPa | 0 mm | - | - | - |
| 1777440216 | 8.89° C | 19% | 1020.7 hPa | 0 mm | - | - | - |
| 1777439924 | 8.89° C | 18% | 1020.6 hPa | 0 mm | - | - | - |
| 1777439609 | 8.89° C | 19% | 1020.6 hPa | 0 mm | - | - | - |
| 1777439320 | 9.44° C | 19% | 1020.6 hPa | 0 mm | - | - | - |
| 1777439023 | 9.44° C | 18% | 1020.7 hPa | 0 mm | - | - | - |
| 1777438715 | 9.44° C | 18% | 1020.7 hPa | 0 mm | - | - | - |
| 1777438413 | 9.44° C | 18% | 1020.5 hPa | 0 mm | - | - | - |
| 1777408708 | 18.33° C | 9% | 1019.6 hPa | 0 mm | - | - | - |
| 1777408416 | 18.33° C | 9% | 1019.4 hPa | 0 mm | - | - | - |
| 1777408108 | 17.78° C | 9% | 1019.6 hPa | 0 mm | - | - | - |
| 1777407815 | 18.33° C | 9% | 1019.6 hPa | 0 mm | - | - | - |
| 1777407524 | 17.78° C | 10% | 1019.5 hPa | 0 mm | - | - | - |
| 1777407212 | 17.22° C | 10% | 1019.5 hPa | 0 mm | - | - | - |
| 1777406921 | 17.22° C | 10% | 1019.6 hPa | 0 mm | - | - | - |
| 1777406613 | 17.78° C | 11% | 1019.7 hPa | 0 mm | - | - | - |
| 1777406322 | 17.78° C | 11% | 1019.6 hPa | 0 mm | - | - | - |
* Rain latest hour (hover to see other rain measurements)
** Current wind speed in m/s (hover to see current wind gust speed)